LFOV 210400Z AUTO 35005KT CAVOK M00/M02 Q1037

ElémentsDécodage
LFOV Station météo située sur l'aérodrome de LAVAL Entrammes
210400Z émis le 21 du mois à 04h00 UTC
AUTO Bulletin édité par un automate
35005KT vent du 350°, 05 noeuds
CAVOK Ceiling And Visibility OK
- Visibilité de 10 Km ou plus
- Pas de nuage au-dessous de 1500m ou au-dessous de l'altitude minimale du secteur la plus élevée (si>1500m) et absence de CB
- pas de temps présent significatif
M00/M02 température 00°C, point de rosée -02°C
 soit une humidité relative de 86%
Q1037 la pression au niveau de la mer (QNH) est de 1037 hPa